createdAt,value
2022-08-10T00:00:31.782Z,97757.34
2022-08-10T00:03:00.469Z,97755.00
2022-08-10T00:05:27.783Z,97757.13
2022-08-10T00:08:09.854Z,97759.69
2022-08-10T00:10:36.587Z,97758.81
2022-08-10T00:13:03.368Z,97760.06
2022-08-10T00:15:52.373Z,97761.59
2022-08-10T00:18:34.508Z,97761.31
2022-08-10T00:21:02.812Z,97766.13
2022-08-10T00:23:29.494Z,97757.94
2022-08-10T00:25:56.100Z,97758.13
2022-08-10T00:28:22.772Z,97752.03
2022-08-10T00:30:49.550Z,97757.75
2022-08-10T00:33:16.454Z,97747.50
2022-08-10T00:35:43.130Z,97751.59
2022-08-10T00:38:09.995Z,97751.72
2022-08-10T00:40:37.632Z,97751.47
2022-08-10T00:43:05.841Z,97742.44
2022-08-10T00:45:33.034Z,97746.41
2022-08-10T00:47:59.612Z,97749.16
2022-08-10T00:50:26.334Z,97746.16
2022-08-10T00:52:53.327Z,97752.63
2022-08-10T00:55:20.046Z,97751.03
2022-08-10T00:57:47.262Z,97745.38
2022-08-10T01:00:22.827Z,97744.59
2022-08-10T01:02:49.538Z,97741.78
2022-08-10T01:05:16.548Z,97750.44
2022-08-10T01:08:10.535Z,97748.00
2022-08-10T01:11:01.367Z,97743.34
2022-08-10T01:13:36.049Z,97737.94
2022-08-10T01:16:20.981Z,97732.72
2022-08-10T01:19:04.106Z,97733.59
2022-08-10T01:21:36.336Z,97741.94
2022-08-10T01:24:08.812Z,97738.94
2022-08-10T01:27:04.062Z,97737.22
2022-08-10T01:29:49.981Z,97737.41
2022-08-10T01:32:23.295Z,97739.47
2022-08-10T01:34:55.206Z,97746.72
2022-08-10T01:37:26.762Z,97732.19
2022-08-10T01:39:58.761Z,97730.63
2022-08-10T01:42:28.490Z,97739.50
2022-08-10T01:45:04.213Z,97736.31
2022-08-10T01:47:53.940Z,97739.50
2022-08-10T01:50:59.969Z,97748.91
2022-08-10T01:53:41.281Z,97751.53
2022-08-10T01:56:12.319Z,97748.00
2022-08-10T01:58:40.235Z,97762.00
2022-08-10T02:01:11.117Z,97750.97
2022-08-10T02:04:02.229Z,97749.59
2022-08-10T02:06:40.099Z,97744.56
2022-08-10T02:09:08.344Z,97746.66
2022-08-10T02:11:55.588Z,97744.94
2022-08-10T02:14:33.384Z,97757.97
2022-08-10T02:17:59.625Z,97753.25
2022-08-10T02:20:05.480Z,97756.38
2022-08-10T02:22:38.134Z,97753.84
2022-08-10T02:25:40.647Z,97760.38
2022-08-10T02:28:05.202Z,97751.44
2022-08-10T02:30:33.686Z,97747.72
2022-08-10T02:33:02.559Z,97748.91
2022-08-10T02:35:38.422Z,97756.09
2022-08-10T02:38:21.807Z,97756.91
2022-08-10T02:45:02.366Z,97761.34
2022-08-10T02:45:29.344Z,97757.28
2022-08-10T02:46:48.830Z,97757.72
2022-08-10T02:49:22.910Z,97761.94
2022-08-10T02:52:07.023Z,97763.13
2022-08-10T02:54:38.788Z,97760.94
2022-08-10T02:57:27.458Z,97750.16
2022-08-10T02:59:57.556Z,97757.41
2022-08-10T03:02:35.193Z,97759.94
2022-08-10T03:05:06.772Z,97768.91
2022-08-10T03:07:44.381Z,97761.66
2022-08-10T03:10:24.743Z,97756.81
2022-08-10T03:12:57.857Z,97762.44
2022-08-10T03:15:25.358Z,97754.78
2022-08-10T03:17:58.357Z,97757.53
2022-08-10T03:20:41.877Z,97758.31
2022-08-10T03:23:18.034Z,97759.09
2022-08-10T03:25:53.263Z,97758.41
2022-08-10T03:28:30.402Z,97755.22
2022-08-10T03:30:59.279Z,97755.75
2022-08-10T03:33:29.344Z,97761.97
2022-08-10T03:36:41.599Z,97759.94
2022-08-10T03:38:46.174Z,97765.53
2022-08-10T03:41:16.111Z,97754.66
2022-08-10T03:43:47.852Z,97756.59
2022-08-10T03:46:18.150Z,97759.25
2022-08-10T03:48:49.204Z,97766.38
2022-08-10T03:51:18.880Z,97768.69
2022-08-10T03:54:06.043Z,97763.03
2022-08-10T03:56:34.950Z,97760.75
2022-08-10T03:59:02.243Z,97764.94
2022-08-10T04:02:45.457Z,97765.91
2022-08-10T04:04:22.842Z,97778.13
2022-08-10T04:06:54.684Z,97782.25
2022-08-10T04:09:23.221Z,97789.19
2022-08-10T04:11:49.887Z,97782.59
2022-08-10T04:14:35.676Z,97788.88
2022-08-10T04:17:03.110Z,97786.06
2022-08-10T04:19:36.965Z,97784.53
2022-08-10T04:22:08.872Z,97785.66
2022-08-10T04:24:38.116Z,97790.97
2022-08-10T04:27:05.285Z,97783.88
2022-08-10T04:29:32.657Z,97781.09
2022-08-10T04:32:01.412Z,97775.84
2022-08-10T04:34:31.958Z,97778.91
2022-08-10T04:37:08.830Z,97779.59
2022-08-10T04:39:36.213Z,97760.25
2022-08-10T04:42:03.905Z,97768.50
2022-08-10T04:44:31.089Z,97771.44
2022-08-10T04:46:59.281Z,97772.28
2022-08-10T04:49:56.485Z,97763.72
2022-08-10T04:52:13.732Z,97765.75
2022-08-10T04:54:40.389Z,97764.06
2022-08-10T04:57:08.954Z,97759.53
2022-08-10T04:59:35.671Z,97763.81
2022-08-10T05:02:30.356Z,97761.97
2022-08-10T05:04:49.583Z,97769.72
2022-08-10T05:07:18.478Z,97773.28
2022-08-10T05:10:01.193Z,97777.66
2022-08-10T05:12:34.495Z,97761.28
2022-08-10T05:15:05.464Z,97761.59
2022-08-10T05:17:32.062Z,97758.22
2022-08-10T05:20:03.608Z,97756.88
2022-08-10T05:22:34.137Z,97760.50
2022-08-10T05:25:00.889Z,97755.09
2022-08-10T05:27:27.522Z,97757.06
2022-08-10T05:30:01.627Z,97755.63
2022-08-10T05:32:31.205Z,97761.66
2022-08-10T05:34:57.960Z,97756.19
2022-08-10T05:38:10.203Z,97757.31
2022-08-10T05:40:12.502Z,97762.28
2022-08-10T05:42:40.933Z,97762.91
2022-08-10T05:45:15.513Z,97757.66
2022-08-10T05:48:54.321Z,97750.03
2022-08-10T05:50:34.790Z,97752.50
2022-08-10T05:53:59.051Z,97751.13
2022-08-10T05:55:48.528Z,97745.63
2022-08-10T05:58:15.189Z,97748.34
2022-08-10T06:00:49.905Z,97758.78
2022-08-10T06:03:23.942Z,97756.44
2022-08-10T06:05:53.858Z,97753.97
2022-08-10T06:08:24.128Z,97749.28
2022-08-10T06:12:25.694Z,97748.03
2022-08-10T06:14:13.068Z,97753.03
2022-08-10T06:16:42.429Z,97747.91
2022-08-10T06:19:10.763Z,97751.41
2022-08-10T06:21:38.831Z,97753.13
2022-08-10T06:24:25.585Z,97756.91
2022-08-10T06:26:58.226Z,97757.75
2022-08-10T06:29:26.772Z,97757.25
2022-08-10T06:31:54.016Z,97757.03
2022-08-10T06:34:26.025Z,97750.03
2022-08-10T06:36:55.283Z,97755.78
2022-08-10T06:39:38.306Z,97755.06
2022-08-10T06:42:15.847Z,97751.72
2022-08-10T06:44:58.486Z,97761.50
2022-08-10T06:47:46.682Z,97757.47
2022-08-10T06:50:34.510Z,97756.66
2022-08-10T06:53:10.652Z,97765.25
2022-08-10T06:55:55.542Z,97764.53
2022-08-10T06:58:26.958Z,97756.44
2022-08-10T07:00:55.675Z,97754.44
2022-08-10T07:03:28.855Z,97751.31
2022-08-10T07:05:56.311Z,97754.56
2022-08-10T07:08:24.425Z,97749.38
2022-08-10T07:10:53.191Z,97750.63
2022-08-10T07:14:14.607Z,97742.47
2022-08-10T07:16:11.506Z,97740.63
2022-08-10T07:18:39.363Z,97736.28
2022-08-10T07:21:08.083Z,97746.09
2022-08-10T07:23:57.053Z,97738.13
2022-08-10T07:26:23.064Z,97734.31
2022-08-10T07:28:51.158Z,97741.97
2022-08-10T07:31:54.938Z,97732.34
2022-08-10T07:34:09.433Z,97737.34
2022-08-10T07:36:37.966Z,97733.31
2022-08-10T07:39:06.329Z,97741.06
2022-08-10T07:41:34.836Z,97732.50
2022-08-10T07:44:04.630Z,97728.00
2022-08-10T07:46:33.545Z,97735.06
2022-08-10T07:49:19.560Z,97732.81
2022-08-10T07:51:55.012Z,97727.47
2022-08-10T07:54:25.302Z,97723.47
2022-08-10T07:56:55.680Z,97728.25
2022-08-10T07:59:36.857Z,97727.06
2022-08-10T08:02:06.510Z,97727.31
2022-08-10T08:04:34.194Z,97717.81
2022-08-10T08:07:04.496Z,97728.34
2022-08-10T08:09:32.429Z,97728.06
2022-08-10T08:12:00.052Z,97724.88
2022-08-10T08:14:27.514Z,97731.63
2022-08-10T08:16:56.416Z,97724.38
2022-08-10T08:19:26.653Z,97721.81
2022-08-10T08:24:06.313Z,97707.75
2022-08-10T08:24:44.382Z,97726.94
2022-08-10T08:27:15.317Z,97716.94
2022-08-10T08:29:45.606Z,97709.66
2022-08-10T08:32:13.397Z,97718.03
2022-08-10T08:34:43.670Z,97720.75
2022-08-10T08:38:26.489Z,97716.41
2022-08-10T08:40:04.319Z,97715.38
2022-08-10T08:42:48.554Z,97719.69
2022-08-10T08:45:49.168Z,97718.06
2022-08-10T08:48:46.279Z,97711.03
2022-08-10T08:52:09.464Z,97724.00
2022-08-10T08:54:34.250Z,97717.50
2022-08-10T08:57:22.937Z,97714.28
2022-08-10T09:00:14.510Z,97718.88
2022-08-10T09:03:00.560Z,97721.84
2022-08-10T09:06:00.243Z,97714.28
2022-08-10T09:08:42.501Z,97718.28
2022-08-10T09:11:27.384Z,97714.84
2022-08-10T09:14:12.779Z,97714.78
2022-08-10T09:16:53.751Z,97715.88
2022-08-10T09:19:47.485Z,97714.53
2022-08-10T09:22:40.263Z,97712.91
2022-08-10T09:25:18.459Z,97714.22
2022-08-10T09:28:06.842Z,97709.38
2022-08-10T09:31:23.183Z,97713.13
2022-08-10T09:36:24.064Z,97715.88
2022-08-10T09:37:42.480Z,97703.75
2022-08-10T09:41:01.302Z,97692.28
2022-08-10T09:43:48.558Z,97703.44
2022-08-10T09:46:36.711Z,97699.06
2022-08-10T09:49:25.818Z,97692.00
2022-08-10T09:52:08.160Z,97694.44
2022-08-10T09:55:05.853Z,97695.81
2022-08-10T09:57:46.284Z,97693.63
2022-08-10T10:00:19.425Z,97692.56
2022-08-10T10:03:12.530Z,97693.13
2022-08-10T10:05:52.164Z,97679.44
2022-08-10T10:08:28.182Z,97682.25
2022-08-10T10:11:07.640Z,97681.44
2022-08-10T10:14:12.351Z,97685.78
2022-08-10T10:16:47.675Z,97686.13
2022-08-10T10:19:43.593Z,97671.56
2022-08-10T10:22:12.874Z,97678.06
2022-08-10T10:24:52.266Z,97668.56
2022-08-10T10:27:57.039Z,97664.50
2022-08-10T10:30:31.089Z,97674.94
2022-08-10T10:33:13.281Z,97670.75
2022-08-10T10:35:47.969Z,97674.22
2022-08-10T10:38:18.364Z,97661.28
2022-08-10T10:41:07.156Z,97669.84
2022-08-10T10:43:42.732Z,97661.25
2022-08-10T10:46:57.597Z,97665.38
2022-08-10T10:49:42.832Z,97663.41
2022-08-10T10:52:39.175Z,97653.72
2022-08-10T10:55:16.349Z,97647.25
2022-08-10T10:58:05.036Z,97641.81
2022-08-10T11:00:44.907Z,97643.97
2022-08-10T11:03:42.330Z,97652.78
2022-08-10T11:06:45.594Z,97648.31
2022-08-10T11:10:05.480Z,97653.50
2022-08-10T11:12:37.231Z,97646.13
2022-08-10T11:15:16.118Z,97640.88
2022-08-10T11:17:56.482Z,97640.28
2022-08-10T11:21:00.665Z,97635.13
2022-08-10T11:24:46.921Z,97636.97
2022-08-10T11:26:50.356Z,97632.63
2022-08-10T11:29:25.699Z,97628.03
2022-08-10T11:32:04.533Z,97635.03
2022-08-10T11:34:48.786Z,97643.97
2022-08-10T11:38:30.998Z,97634.41
2022-08-10T11:40:49.315Z,97630.16
2022-08-10T11:43:27.213Z,97627.69
2022-08-10T11:46:19.400Z,97619.94
2022-08-10T11:49:02.076Z,97619.00
2022-08-10T11:51:43.979Z,97627.34
2022-08-10T11:54:21.773Z,97627.00
2022-08-10T11:56:58.551Z,97627.59
2022-08-10T11:59:58.058Z,97619.69
2022-08-10T12:02:56.943Z,97621.31
2022-08-10T12:05:52.289Z,97605.78
2022-08-10T12:10:09.042Z,97610.00
2022-08-10T12:11:24.203Z,97610.88
2022-08-10T12:14:23.375Z,97605.59
2022-08-10T12:17:02.251Z,97610.00
2022-08-10T12:19:59.080Z,97596.22
2022-08-10T12:22:33.354Z,97603.84
2022-08-10T12:25:07.599Z,97589.66
2022-08-10T12:27:34.112Z,97596.16
2022-08-10T12:30:09.836Z,97592.91
2022-08-10T12:32:49.152Z,97588.25
2022-08-10T12:35:26.778Z,97574.56
2022-08-10T12:38:06.894Z,97584.63
2022-08-10T12:40:40.022Z,97591.41
2022-08-10T12:44:07.395Z,97582.81
2022-08-10T12:46:26.257Z,97580.91
2022-08-10T12:49:01.803Z,97580.00
2022-08-10T12:51:31.294Z,97584.00
2022-08-10T12:54:14.487Z,97582.28
2022-08-10T12:56:47.048Z,97584.13
2022-08-10T12:59:14.904Z,97584.09
2022-08-10T13:02:07.771Z,97576.69
2022-08-10T13:04:35.462Z,97572.34
2022-08-10T13:07:04.535Z,97570.88
2022-08-10T13:09:33.290Z,97573.72
2022-08-10T13:12:38.911Z,97580.59
2022-08-10T13:15:28.280Z,97566.25
2022-08-10T13:18:18.306Z,97574.00
2022-08-10T13:20:51.619Z,97573.13
2022-08-10T13:23:25.061Z,97569.56
2022-08-10T13:25:55.005Z,97567.50
2022-08-10T13:28:36.128Z,97568.38
2022-08-10T13:31:16.233Z,97567.94
2022-08-10T13:34:39.914Z,97575.03
2022-08-10T13:36:46.436Z,97565.31
2022-08-10T13:39:17.120Z,97564.06
2022-08-10T13:41:46.278Z,97558.69
2022-08-10T13:44:29.815Z,97558.78
2022-08-10T13:46:57.291Z,97560.16
2022-08-10T13:49:24.452Z,97555.84
2022-08-10T13:51:53.897Z,97553.78
2022-08-10T13:54:36.097Z,97544.09
2022-08-10T13:57:04.870Z,97552.06
2022-08-10T14:00:37.380Z,97539.81
2022-08-10T14:02:28.802Z,97544.47
2022-08-10T14:04:57.753Z,97541.75
2022-08-10T14:07:27.105Z,97551.31
2022-08-10T14:10:02.025Z,97541.38
2022-08-10T14:12:31.884Z,97546.44
2022-08-10T14:15:01.240Z,97553.13
2022-08-10T14:17:28.707Z,97540.16
2022-08-10T14:20:10.540Z,97543.69
2022-08-10T14:22:39.640Z,97545.34
2022-08-10T14:25:08.897Z,97534.28
2022-08-10T14:28:01.563Z,97534.78
2022-08-10T14:30:30.922Z,97526.81
2022-08-10T14:33:00.379Z,97529.47
2022-08-10T14:36:19.627Z,97538.09
2022-08-10T14:38:19.649Z,97530.50
2022-08-10T14:40:52.551Z,97534.06
2022-08-10T14:43:28.529Z,97524.94
2022-08-10T14:46:04.038Z,97519.34
2022-08-10T14:48:41.567Z,97522.09
2022-08-10T14:51:11.308Z,97521.31
2022-08-10T14:53:41.119Z,97512.63
2022-08-10T14:56:17.315Z,97516.16
2022-08-10T14:59:06.262Z,97501.38
2022-08-10T15:02:00.809Z,97490.44
2022-08-10T15:04:25.974Z,97495.81
2022-08-10T15:07:12.184Z,97487.69
2022-08-10T15:10:00.921Z,97500.88
2022-08-10T15:12:33.846Z,97491.25
2022-08-10T15:15:02.493Z,97504.34
2022-08-10T15:17:35.111Z,97496.88
2022-08-10T15:20:13.622Z,97500.69
2022-08-10T15:22:47.588Z,97517.81
2022-08-10T15:25:25.222Z,97502.97
2022-08-10T15:28:04.952Z,97504.03
2022-08-10T15:30:42.723Z,97508.34
2022-08-10T15:34:03.651Z,97503.50
2022-08-10T15:36:40.188Z,97498.97
2022-08-10T15:40:21.941Z,97489.25
2022-08-10T15:42:17.530Z,97494.63
2022-08-10T15:44:46.978Z,97490.88
2022-08-10T15:47:46.174Z,97481.41
2022-08-10T15:50:23.429Z,97492.47
2022-08-10T15:53:00.890Z,97489.00
2022-08-10T15:55:43.452Z,97488.16
2022-08-10T15:58:39.721Z,97486.28
2022-08-10T16:02:13.418Z,97481.88
2022-08-10T16:04:35.407Z,97481.41
2022-08-10T16:07:06.720Z,97475.44
2022-08-10T16:10:24.332Z,97470.06
2022-08-10T16:12:38.359Z,97469.81
2022-08-10T16:15:17.955Z,97469.53
2022-08-10T16:17:54.556Z,97475.19
2022-08-10T16:20:32.384Z,97471.16
2022-08-10T16:23:05.675Z,97477.09
2022-08-10T16:25:51.600Z,97473.88
2022-08-10T16:28:23.899Z,97474.94
2022-08-10T16:30:55.813Z,97470.09
2022-08-10T16:33:27.601Z,97474.69
2022-08-10T16:36:16.773Z,97469.56
2022-08-10T16:38:49.091Z,97461.47
2022-08-10T16:42:00.409Z,97461.44
2022-08-10T16:44:06.964Z,97458.19
2022-08-10T16:46:34.836Z,97461.44
2022-08-10T16:49:03.096Z,97464.16
2022-08-10T16:51:30.805Z,97459.25
2022-08-10T16:54:01.590Z,97459.81
2022-08-10T16:56:48.816Z,97461.44
2022-08-10T16:59:20.815Z,97465.22
2022-08-10T17:01:54.265Z,97463.06
2022-08-10T17:04:23.586Z,97463.59
2022-08-10T17:06:59.326Z,97461.47
2022-08-10T17:09:37.489Z,97460.88
2022-08-10T17:12:11.628Z,97466.19
2022-08-10T17:14:41.549Z,97467.03
2022-08-10T17:17:20.935Z,97467.53
2022-08-10T17:19:48.959Z,97466.19
2022-08-10T17:22:20.818Z,97462.38
2022-08-10T17:24:55.179Z,97465.59
2022-08-10T17:28:05.881Z,97461.06
2022-08-10T17:30:15.819Z,97452.13
2022-08-10T17:32:56.143Z,97456.97
2022-08-10T17:35:27.578Z,97452.31
2022-08-10T17:37:55.798Z,97456.34
2022-08-10T17:40:24.945Z,97456.63
2022-08-10T17:42:54.417Z,97452.94
2022-08-10T17:45:48.851Z,97459.56
2022-08-10T17:48:11.934Z,97461.75
2022-08-10T17:50:41.832Z,97460.56
2022-08-10T17:53:16.204Z,97448.38
2022-08-10T17:55:46.010Z,97463.13
2022-08-10T17:58:16.118Z,97459.09
2022-08-10T18:00:45.059Z,97463.69
2022-08-10T18:03:25.635Z,97456.06
2022-08-10T18:06:02.233Z,97469.97
2022-08-10T18:08:32.283Z,97469.69
2022-08-10T18:11:00.371Z,97473.56
2022-08-10T18:13:56.397Z,97467.06
2022-08-10T18:16:24.143Z,97469.47
2022-08-10T18:18:58.399Z,97468.97
2022-08-10T18:21:30.873Z,97474.75
2022-08-10T18:24:14.176Z,97477.19
2022-08-10T18:26:45.017Z,97477.63
2022-08-10T18:29:22.958Z,97479.44
2022-08-10T18:31:56.714Z,97484.69
2022-08-10T18:34:24.646Z,97479.94
2022-08-10T18:36:53.021Z,97484.06
2022-08-10T18:39:27.934Z,97485.91
2022-08-10T18:42:05.725Z,97480.31
2022-08-10T18:44:37.353Z,97477.13
2022-08-10T18:47:12.786Z,97484.81
2022-08-10T18:49:46.633Z,97493.84
2022-08-10T18:52:15.969Z,97488.56
2022-08-10T18:54:51.005Z,97499.00
2022-08-10T18:57:47.202Z,97490.03
2022-08-10T19:00:20.124Z,97496.06
2022-08-10T19:02:50.936Z,97491.59
2022-08-10T19:05:45.323Z,97499.78
2022-08-10T19:08:33.439Z,97497.31
2022-08-10T19:11:47.823Z,97508.78
2022-08-10T19:14:30.619Z,97505.28
2022-08-10T19:17:21.490Z,97501.59
2022-08-10T19:19:58.353Z,97503.72
2022-08-10T19:22:32.515Z,97501.66
2022-08-10T19:25:14.980Z,97502.47
2022-08-10T19:28:03.557Z,97493.97
2022-08-10T19:30:50.284Z,97508.34
2022-08-10T19:33:42.706Z,97507.47
2022-08-10T19:36:45.059Z,97508.50
2022-08-10T19:39:18.382Z,97515.06
2022-08-10T19:41:54.532Z,97518.44
2022-08-10T19:44:57.987Z,97516.34
2022-08-10T19:47:28.987Z,97511.94
2022-08-10T19:50:04.448Z,97519.81
2022-08-10T19:52:37.217Z,97507.16
2022-08-10T19:55:12.445Z,97513.41
2022-08-10T19:57:54.301Z,97519.50
2022-08-10T20:00:26.933Z,97521.44
2022-08-10T20:03:12.283Z,97521.81
2022-08-10T20:06:13.425Z,97525.75
2022-08-10T20:08:48.160Z,97529.00
2022-08-10T20:11:44.346Z,97526.41
2022-08-10T20:14:36.730Z,97528.38
2022-08-10T20:17:29.388Z,97532.38
2022-08-10T20:20:31.020Z,97533.75
2022-08-10T20:23:08.966Z,97530.13
2022-08-10T20:25:35.825Z,97533.75
2022-08-10T20:28:15.309Z,97542.72
2022-08-10T20:30:52.071Z,97536.38
2022-08-10T20:33:32.304Z,97539.97
2022-08-10T20:36:16.235Z,97539.16
2022-08-10T20:38:54.687Z,97542.75
2022-08-10T20:41:33.038Z,97542.16
2022-08-10T20:44:29.134Z,97546.59
2022-08-10T20:47:14.067Z,97539.38
2022-08-10T20:49:49.963Z,97545.59
2022-08-10T20:52:16.778Z,97544.00
2022-08-10T20:54:56.353Z,97538.81
2022-08-10T20:57:56.234Z,97537.72
2022-08-10T21:00:49.455Z,97542.16
2022-08-10T21:03:21.182Z,97542.50
2022-08-10T21:06:24.078Z,97534.78
2022-08-10T21:09:00.928Z,97538.19
2022-08-10T21:11:49.655Z,97534.75
2022-08-10T21:14:22.438Z,97523.66
2022-08-10T21:17:06.134Z,97527.78
2022-08-10T21:19:55.409Z,97524.34
2022-08-10T21:22:29.528Z,97524.63
2022-08-10T21:25:02.298Z,97528.47
2022-08-10T21:27:55.308Z,97532.28
2022-08-10T21:31:02.396Z,97530.38
2022-08-10T21:33:42.311Z,97527.97
2022-08-10T21:36:22.945Z,97528.97
2022-08-10T21:39:02.585Z,97528.97
2022-08-10T21:42:05.401Z,97537.41
2022-08-10T21:45:18.739Z,97530.13
2022-08-10T21:48:38.045Z,97526.41
2022-08-10T21:54:53.888Z,97528.56
2022-08-10T21:58:28.351Z,97526.50
2022-08-10T22:01:24.563Z,97530.00
2022-08-10T22:04:24.738Z,97527.00
2022-08-10T22:07:11.178Z,97528.66
2022-08-10T22:10:03.940Z,97531.50
2022-08-10T22:12:58.628Z,97523.28
2022-08-10T22:16:05.690Z,97523.38
2022-08-10T22:18:59.508Z,97525.63
2022-08-10T22:21:47.978Z,97527.47
2022-08-10T22:24:41.462Z,97514.38
2022-08-10T22:27:50.177Z,97518.75
2022-08-10T22:30:37.993Z,97518.25
2022-08-10T22:31:25.378Z,97528.09
2022-08-10T22:33:44.965Z,97519.31
2022-08-10T22:36:51.895Z,97518.69
2022-08-10T22:40:11.513Z,97517.28
2022-08-10T22:43:10.472Z,97517.31
2022-08-10T22:46:02.936Z,97521.59
2022-08-10T22:48:48.125Z,97522.63
2022-08-10T22:51:23.507Z,97511.59
2022-08-10T22:54:30.433Z,97517.53
2022-08-10T22:57:18.808Z,97519.16
2022-08-10T22:59:45.826Z,97517.31
2022-08-10T23:02:28.599Z,97520.00
2022-08-10T23:05:05.612Z,97522.47
2022-08-10T23:07:36.023Z,97512.59
2022-08-10T23:10:10.627Z,97507.09
2022-08-10T23:13:02.630Z,97516.50
2022-08-10T23:15:54.048Z,97513.63
2022-08-10T23:18:55.074Z,97509.94
2022-08-10T23:21:26.261Z,97508.28
2022-08-10T23:24:14.600Z,97508.91
2022-08-10T23:26:43.997Z,97506.88
2022-08-10T23:29:14.571Z,97510.38
2022-08-10T23:31:50.409Z,97513.66
2022-08-10T23:34:35.204Z,97501.00
2022-08-10T23:37:04.171Z,97510.81
2022-08-10T23:39:40.843Z,97514.50
2022-08-10T23:42:10.598Z,97513.25
2022-08-10T23:44:43.316Z,97512.63
2022-08-10T23:47:13.837Z,97511.84
2022-08-10T23:49:43.220Z,97515.69
2022-08-10T23:52:12.826Z,97513.63
2022-08-10T23:54:48.681Z,97515.69
2022-08-10T23:57:21.736Z,97515.28
2022-08-10T23:59:55.631Z,97505.69
